Time;durP1;ratioP1;P1;durP2;ratioP2;P2;SDS_P1;SDS_P2;PMS_P1;PMS_P2;Temp;Humidity;BMP_temperature;BMP_pressure;BME280_temperature;BME280_humidity;BME280_pressure;Samples;Min_cycle;Max_cycle;Signal;HPM_P1;HPM_P2
2021/04/15 00:00:25;;;;;;;9.43;6.28;;;8.60;99.90;;;;;;5031675;28;20104;-77
2021/04/15 00:02:51;;;;;;;7.78;6.15;;;8.50;99.90;;;;;;5031184;28;20038;-78
2021/04/15 00:05:24;;;;;;;9.15;6.32;;;8.60;99.90;;;;;;5031151;28;20026;-78
2021/04/15 00:07:50;;;;;;;6.47;5.53;;;8.60;99.90;;;;;;5031627;28;20447;-78
2021/04/15 00:10:16;;;;;;;7.68;5.60;;;8.60;99.90;;;;;;5031156;28;20609;-79
2021/04/15 00:12:42;;;;;;;8.05;5.57;;;8.50;99.90;;;;;;5032013;28;20014;-79
2021/04/15 00:15:11;;;;;;;11.23;6.07;;;8.60;99.90;;;;;;5031027;28;20040;-81
2021/04/15 00:17:36;;;;;;;8.13;5.85;;;8.50;99.90;;;;;;5031999;28;20030;-78
2021/04/15 00:20:07;;;;;;;6.82;5.43;;;8.60;99.90;;;;;;5013433;28;20036;-80
2021/04/15 00:22:33;;;;;;;8.27;5.88;;;8.60;99.90;;;;;;5031273;28;20385;-79
2021/04/15 00:25:00;;;;;;;7.70;6.00;;;8.60;99.90;;;;;;5030700;28;20022;-80
2021/04/15 00:27:26;;;;;;;7.45;5.55;;;8.60;99.90;;;;;;5031702;28;20466;-79
2021/04/15 00:29:52;;;;;;;7.78;5.53;;;8.50;99.90;;;;;;5016650;28;20605;-80
2021/04/15 00:32:18;;;;;;;7.22;5.60;;;8.20;99.90;;;;;;4994150;28;20069;-80
2021/04/15 00:34:43;;;;;;;8.90;6.10;;;8.20;99.90;;;;;;5010849;28;20060;-80
2021/04/15 00:37:09;;;;;;;8.18;6.18;;;8.30;99.90;;;;;;5011926;28;20537;-80
2021/04/15 00:39:35;;;;;;;6.88;5.60;;;8.50;99.90;;;;;;5010875;28;20592;-79
2021/04/15 00:42:01;;;;;;;7.05;5.65;;;8.50;99.90;;;;;;5011557;28;20036;-77
2021/04/15 00:44:27;;;;;;;7.30;5.55;;;8.50;99.90;;;;;;5010759;28;20121;-78
2021/04/15 00:46:58;;;;;;;6.70;5.55;;;8.50;99.90;;;;;;5011231;28;20028;-79
2021/04/15 00:49:41;;;;;;;6.65;5.00;;;8.50;99.90;;;;;;5010864;28;20029;-77
2021/04/15 00:52:15;;;;;;;6.93;5.22;;;8.40;99.90;;;;;;5011436;28;20097;-80
2021/04/15 00:54:47;;;;;;;7.20;5.32;;;8.30;99.90;;;;;;5010902;28;20113;-80
2021/04/15 00:57:21;;;;;;;7.22;5.20;;;8.30;99.90;;;;;;5011517;28;20022;-79
2021/04/15 00:59:47;;;;;;;5.97;4.70;;;8.40;99.90;;;;;;5010725;28;20109;-78
2021/04/15 01:02:17;;;;;;;7.07;5.18;;;8.50;99.90;;;;;;5011652;28;20101;-78
2021/04/15 01:04:43;;;;;;;6.28;5.18;;;8.50;99.90;;;;;;5010550;28;20037;-77
2021/04/15 01:07:09;;;;;;;7.78;5.70;;;8.50;99.90;;;;;;5011707;28;20064;-79
2021/04/15 01:09:35;;;;;;;6.97;5.28;;;8.50;99.90;;;;;;5010954;28;20022;-76
2021/04/15 01:12:12;;;;;;;7.53;5.55;;;8.50;99.90;;;;;;5011241;28;20041;-79
2021/04/15 01:15:17;;;;;;;7.43;5.82;;;8.50;99.90;;;;;;4994165;28;20037;-79
2021/04/15 01:17:49;;;;;;;6.90;5.20;;;8.50;99.90;;;;;;4997972;28;20034;-78
2021/04/15 01:20:47;;;;;;;7.47;5.63;;;8.50;99.90;;;;;;5014439;28;20409;-78
2021/04/15 01:23:49;;;;;;;7.10;5.25;;;8.50;99.90;;;;;;5015133;28;20403;-78
2021/04/15 01:26:41;;;;;;;8.02;6.28;;;8.50;99.90;;;;;;5014606;28;20022;-77
2021/04/15 01:29:25;;;;;;;6.18;5.53;;;8.50;99.90;;;;;;5021349;28;20105;-80
2021/04/15 01:31:59;;;;;;;7.82;5.45;;;8.50;99.90;;;;;;5034704;28;20433;-79
2021/04/15 01:34:34;;;;;;;9.00;5.85;;;8.50;99.90;;;;;;5033632;28;20046;-77
2021/04/15 01:37:06;;;;;;;8.20;5.72;;;8.50;99.90;;;;;;5034857;28;20424;-77
2021/04/15 01:39:39;;;;;;;6.43;5.72;;;8.40;99.90;;;;;;5033651;28;20420;-76
2021/04/15 01:42:12;;;;;;;6.95;5.40;;;8.20;99.90;;;;;;5034608;28;20021;-78
2021/04/15 01:44:47;;;;;;;8.48;5.97;;;8.20;99.90;;;;;;5033804;28;20025;-81
2021/04/15 01:47:18;;;;;;;8.60;5.90;;;8.20;99.90;;;;;;5034648;28;20026;-79
2021/04/15 01:49:49;;;;;;;6.82;5.47;;;8.20;99.90;;;;;;5033739;28;20033;-78
2021/04/15 01:52:17;;;;;;;7.97;5.82;;;8.10;99.90;;;;;;5034319;28;20033;-78
2021/04/15 01:55:04;;;;;;;6.93;5.70;;;8.10;99.90;;;;;;5033581;28;20022;-80
2021/04/15 01:58:00;;;;;;;7.05;5.97;;;8.10;99.90;;;;;;5034226;28;20021;-77
2021/04/15 02:00:30;;;;;;;10.23;6.32;;;8.00;99.90;;;;;;5009389;28;20030;-78
2021/04/15 02:03:00;;;;;;;9.17;5.60;;;8.00;99.90;;;;;;5034390;28;20620;-81
2021/04/15 02:05:27;;;;;;;;;;;8.00;99.90;;;;;;5034033;28;20037;-78
2021/04/15 02:07:58;;;;;;;8.68;5.82;;;8.00;99.90;;;;;;5034392;28;19905;-76
2021/04/15 02:10:25;;;;;;;7.78;6.28;;;8.00;99.90;;;;;;5002393;28;20145;-78
2021/04/15 02:12:54;;;;;;;7.25;6.32;;;8.00;99.90;;;;;;4995141;28;20089;-78
2021/04/15 02:15:29;;;;;;;7.72;6.35;;;7.90;99.90;;;;;;4995427;28;20061;-77
2021/04/15 02:18:06;;;;;;;6.63;5.80;;;7.90;99.90;;;;;;5014708;28;20072;-78
2021/04/15 02:20:32;;;;;;;7.43;5.85;;;8.00;99.90;;;;;;5013336;28;20532;-78
2021/04/15 02:23:08;;;;;;;7.32;5.70;;;7.90;99.90;;;;;;5014226;28;20030;-77
2021/04/15 02:26:03;;;;;;;10.02;5.97;;;8.00;99.90;;;;;;5005064;28;20397;-79
2021/04/15 02:28:43;;;;;;;7.80;5.85;;;7.90;99.90;;;;;;4986373;28;20046;-76
2021/04/15 02:31:15;;;;;;;6.95;5.57;;;8.00;99.90;;;;;;4993481;28;20057;-77
2021/04/15 02:34:01;;;;;;;7.95;5.88;;;8.00;99.90;;;;;;4994540;28;20042;-76
2021/04/15 02:36:33;;;;;;;7.93;5.80;;;8.00;99.90;;;;;;4993788;28;20030;-76
2021/04/15 02:39:11;;;;;;;7.75;6.30;;;7.90;99.90;;;;;;4994464;28;20022;-78
2021/04/15 02:41:40;;;;;;;9.65;5.97;;;8.00;99.90;;;;;;4992742;28;20028;-78
2021/04/15 02:44:12;;;;;;;7.13;6.10;;;8.00;99.90;;;;;;4993993;28;20109;-78
2021/04/15 02:46:44;;;;;;;9.00;6.20;;;8.00;99.90;;;;;;4993336;28;20019;-77
2021/04/15 02:49:13;;;;;;;7.47;5.95;;;8.10;99.90;;;;;;4994394;28;20034;-78
2021/04/15 02:51:47;;;;;;;7.93;6.20;;;8.00;99.90;;;;;;4993218;28;20049;-76
2021/04/15 02:54:33;;;;;;;7.00;5.70;;;8.00;99.90;;;;;;4993723;28;20022;-78
2021/04/15 02:57:48;;;;;;;7.68;5.97;;;7.90;99.90;;;;;;4975924;28;20430;-78
2021/04/15 03:00:18;;;;;;;10.75;6.03;;;7.90;99.90;;;;;;4982978;28;20117;-74
2021/04/15 03:02:49;;;;;;;6.47;5.60;;;7.90;99.90;;;;;;4993121;28;20374;-77
2021/04/15 03:05:23;;;;;;;7.57;5.70;;;7.80;99.90;;;;;;4993878;28;20474;-79
2021/04/15 03:07:52;;;;;;;8.55;6.22;;;7.90;99.90;;;;;;4992803;28;20019;-75
2021/04/15 03:10:25;;;;;;;7.82;5.80;;;7.80;99.90;;;;;;4993662;28;20058;-79
2021/04/15 03:13:05;;;;;;;7.82;5.82;;;7.80;99.90;;;;;;4993151;28;20112;-75
2021/04/15 03:15:37;;;;;;;7.55;6.22;;;7.80;99.90;;;;;;4993830;28;20694;-79
2021/04/15 03:18:10;;;;;;;7.40;6.13;;;7.60;99.90;;;;;;4993129;28;20498;-75
2021/04/15 03:20:46;;;;;;;7.75;6.47;;;7.70;99.90;;;;;;4993175;28;20026;-76
2021/04/15 03:23:25;;;;;;;7.70;6.32;;;7.70;99.90;;;;;;4993308;28;20034;-79
2021/04/15 03:25:55;;;;;;;7.05;6.00;;;7.60;99.90;;;;;;4993034;28;20398;-77
2021/04/15 03:28:36;;;;;;;8.13;6.68;;;7.60;99.90;;;;;;4993629;28;20092;-77
2021/04/15 03:31:10;;;;;;;6.88;5.70;;;7.60;99.90;;;;;;5030906;28;20034;-81
2021/04/15 03:33:46;;;;;;;9.75;6.35;;;7.60;99.90;;;;;;5032719;28;20072;-77
2021/04/15 03:36:41;;;;;;;8.15;5.72;;;7.60;99.90;;;;;;5031946;28;20064;-78
2021/04/15 03:39:19;;;;;;;8.05;6.55;;;7.60;99.90;;;;;;5031400;28;20049;-75
2021/04/15 03:41:48;;;;;;;7.93;6.15;;;7.70;99.90;;;;;;5014332;28;20022;-76
2021/04/15 03:44:32;;;;;;;8.00;6.35;;;7.60;99.90;;;;;;5032504;28;20100;-77
2021/04/15 03:47:20;;;;;;;9.20;7.18;;;7.50;99.90;;;;;;5031700;28;20013;-77
2021/04/15 03:49:57;;;;;;;8.68;6.38;;;7.60;99.90;;;;;;5032465;28;20037;-76
2021/04/15 03:52:36;;;;;;;7.13;5.97;;;7.50;99.90;;;;;;5031587;28;20485;-77
2021/04/15 03:55:27;;;;;;;6.47;5.72;;;7.50;99.90;;;;;;5032634;28;20027;-76
2021/04/15 03:57:59;;;;;;;8.10;6.85;;;7.40;99.90;;;;;;5020641;28;20029;-78
2021/04/15 04:00:38;;;;;;;8.75;6.65;;;7.40;99.90;;;;;;5032160;28;20028;-81
2021/04/15 04:03:14;;;;;;;7.97;6.55;;;7.40;99.90;;;;;;5031869;28;20104;-79
2021/04/15 04:05:47;;;;;;;8.85;7.03;;;7.40;99.90;;;;;;5032125;28;20037;-76
2021/04/15 04:08:26;;;;;;;9.75;6.93;;;7.50;99.90;;;;;;5031117;28;20453;-80
2021/04/15 04:10:57;;;;;;;9.45;7.00;;;7.50;99.90;;;;;;5032210;28;20116;-78
2021/04/15 04:13:34;;;;;;;9.15;7.03;;;7.50;99.90;;;;;;5031227;28;20166;-78
2021/04/15 04:16:06;;;;;;;10.13;7.18;;;7.50;99.90;;;;;;5014384;28;20033;-79
2021/04/15 04:18:50;;;;;;;8.65;7.28;;;7.50;99.90;;;;;;5031364;28;20067;-79
2021/04/15 04:21:39;;;;;;;9.68;7.07;;;7.60;99.90;;;;;;5032151;28;20381;-79
2021/04/15 04:24:11;;;;;;;10.18;7.03;;;7.50;99.90;;;;;;5014377;28;20065;-78
2021/04/15 04:26:44;;;;;;;10.73;6.90;;;7.60;99.90;;;;;;5032142;28;20405;-79
2021/04/15 04:29:35;;;;;;;9.63;7.57;;;7.60;99.90;;;;;;5029357;28;20044;-78
2021/04/15 04:32:05;;;;;;;9.25;7.20;;;7.70;99.90;;;;;;5011069;28;20042;-77
2021/04/15 04:34:32;;;;;;;10.05;7.43;;;7.70;99.90;;;;;;5012055;28;20409;-77
2021/04/15 04:37:00;;;;;;;9.50;7.53;;;7.60;99.90;;;;;;5011649;28;20451;-77
2021/04/15 04:39:28;;;;;;;10.35;7.13;;;7.70;99.90;;;;;;5011929;28;20104;-76
2021/04/15 04:41:56;;;;;;;10.65;7.47;;;7.80;99.90;;;;;;5012052;28;20054;-77
2021/04/15 04:44:50;;;;;;;9.98;7.25;;;7.60;99.90;;;;;;5011895;28;20544;-79
2021/04/15 04:47:40;;;;;;;10.63;7.50;;;7.70;99.90;;;;;;5001835;28;20105;-80
2021/04/15 04:50:30;;;;;;;11.07;7.87;;;7.50;99.90;;;;;;5015626;28;20033;-79
2021/04/15 04:52:57;;;;;;;9.82;7.40;;;7.50;99.90;;;;;;5015505;28;20275;-80
2021/04/15 04:55:35;;;;;;;8.57;7.22;;;7.50;99.90;;;;;;5015719;28;20109;-80
2021/04/15 04:58:01;;;;;;;10.02;7.75;;;7.60;99.90;;;;;;5015240;28;20030;-76
2021/04/15 05:00:28;;;;;;;10.57;7.35;;;7.60;99.90;;;;;;5015648;28;20178;-79
2021/04/15 05:02:57;;;;;;;9.93;6.85;;;7.60;99.90;;;;;;5015331;28;20108;-78
2021/04/15 05:05:29;;;;;;;10.88;7.63;;;7.60;99.90;;;;;;5015937;28;20048;-77
2021/04/15 05:08:06;;;;;;;9.50;7.30;;;7.50;99.90;;;;;;5015282;28;20111;-78
2021/04/15 05:10:34;;;;;;;8.40;6.65;;;7.50;99.90;;;;;;5015613;28;20030;-80
2021/04/15 05:13:26;;;;;;;8.90;7.20;;;7.50;99.90;;;;;;5015064;28;20040;-80
2021/04/15 05:15:54;;;;;;;9.68;7.60;;;7.60;99.90;;;;;;5015496;28;20026;-79
2021/04/15 05:18:21;;;;;;;9.35;7.18;;;7.50;99.90;;;;;;5014458;28;20054;-81
2021/04/15 05:20:50;;;;;;;13.43;9.77;;;7.70;99.90;;;;;;5014730;28;20061;-81
2021/04/15 05:23:19;;;;;;;14.80;9.88;;;8.20;99.90;;;;;;4996973;28;20363;-77
2021/04/15 05:26:15;;;;;;;10.45;8.35;;;8.00;99.90;;;;;;5014852;28;20487;-79
2021/04/15 05:28:42;;;;;;;11.05;7.90;;;8.20;99.90;;;;;;5014387;28;20037;-79
2021/04/15 05:31:12;;;;;;;9.45;6.80;;;7.70;99.90;;;;;;5031602;28;20034;-80
2021/04/15 05:33:39;;;;;;;25.53;15.30;;;7.40;99.90;;;;;;5034087;28;20480;-81
2021/04/15 05:36:23;;;;;;;11.52;8.73;;;7.50;99.90;;;;;;5030814;28;20029;-80
2021/04/15 05:39:01;;;;;;;11.48;7.00;;;7.80;99.90;;;;;;5034069;28;20030;-78
2021/04/15 05:41:49;;;;;;;11.15;7.30;;;7.90;99.90;;;;;;4997594;28;20092;-80
2021/04/15 05:44:28;;;;;;;10.07;6.97;;;8.00;99.90;;;;;;5014024;28;20121;-79
2021/04/15 05:46:55;;;;;;;10.05;7.38;;;7.90;99.90;;;;;;5013987;28;20018;-79
2021/04/15 05:49:35;;;;;;;11.75;7.60;;;8.00;99.90;;;;;;5013836;28;20438;-78
2021/04/15 05:52:04;;;;;;;11.07;7.97;;;7.90;99.90;;;;;;5014010;28;20034;-77
2021/04/15 05:54:33;;;;;;;8.80;7.18;;;8.00;99.90;;;;;;5013567;28;20064;-76
2021/04/15 05:57:04;;;;;;;11.75;7.93;;;8.20;99.90;;;;;;5013741;28;20034;-76
2021/04/15 05:59:42;;;;;;;11.48;8.07;;;8.10;99.90;;;;;;5011886;28;20030;-79
2021/04/15 06:02:22;;;;;;;10.30;7.47;;;8.40;99.90;;;;;;5010606;28;20053;-81
2021/04/15 06:05:06;;;;;;;10.20;6.95;;;8.50;99.90;;;;;;5012782;28;20393;-78
2021/04/15 06:07:32;;;;;;;10.35;7.95;;;8.40;99.90;;;;;;5013961;28;20026;-80
2021/04/15 06:09:58;;;;;;;9.65;7.68;;;8.50;99.90;;;;;;5013120;28;20026;-81
2021/04/15 06:12:41;;;;;;;10.20;7.70;;;8.60;99.90;;;;;;5014082;28;20030;-82
2021/04/15 06:15:16;;;;;;;24.77;17.02;;;8.70;99.90;;;;;;5013003;28;20014;-81
2021/04/15 06:17:45;;;;;;;18.50;12.55;;;8.90;99.90;;;;;;5013948;28;20104;-83
2021/04/15 06:20:25;;;;;;;18.63;11.65;;;9.00;99.90;;;;;;5012847;28;20109;-78
2021/04/15 06:22:55;;;;;;;13.03;8.00;;;8.90;99.90;;;;;;5013273;28;20089;-78
2021/04/15 06:25:21;;;;;;;9.05;7.28;;;8.90;99.90;;;;;;5013130;28;20519;-79
2021/04/15 06:27:48;;;;;;;11.65;7.07;;;8.90;99.90;;;;;;5012562;28;20525;-79
2021/04/15 06:30:38;;;;;;;10.82;7.00;;;8.90;99.90;;;;;;5012994;28;20067;-78
2021/04/15 06:33:13;;;;;;;11.13;6.38;;;8.90;99.90;;;;;;5011461;28;20033;-79
2021/04/15 06:35:44;;;;;;;8.52;6.28;;;8.80;99.30;;;;;;5007678;28;20069;-78
2021/04/15 06:38:20;;;;;;;11.52;6.18;;;9.00;99.60;;;;;;5011710;28;20036;-79
2021/04/15 06:41:06;;;;;;;13.73;7.03;;;9.10;97.70;;;;;;5011914;28;20018;-79
2021/04/15 06:43:50;;;;;;;11.50;6.90;;;9.40;98.90;;;;;;5011800;28;20060;-79
2021/04/15 06:46:30;;;;;;;9.85;6.40;;;9.60;98.80;;;;;;5012453;28;20025;-78
2021/04/15 06:49:20;;;;;;;12.18;6.75;;;9.70;99.20;;;;;;5011722;28;20029;-79
2021/04/15 06:52:17;;;;;;;15.02;7.20;;;9.70;98.50;;;;;;5013511;28;20096;-80
2021/04/15 06:55:09;;;;;;;9.27;6.38;;;9.80;98.20;;;;;;5012953;28;20076;-80
2021/04/15 06:58:10;;;;;;;14.18;7.40;;;9.90;98.90;;;;;;5013123;28;20133;-77
2021/04/15 07:00:36;;;;;;;10.50;6.90;;;9.90;99.60;;;;;;5011934;28;20030;-79
2021/04/15 07:03:33;;;;;;;12.05;7.45;;;10.00;99.00;;;;;;5013041;28;20026;-79
2021/04/15 07:06:07;;;;;;;12.32;8.18;;;10.10;98.30;;;;;;5012087;28;20072;-79
2021/04/15 07:08:48;;;;;;;12.32;7.80;;;10.20;96.20;;;;;;4995287;28;20473;-79
2021/04/15 07:11:29;;;;;;;8.77;6.90;;;10.30;95.60;;;;;;5012700;28;20037;-79
2021/04/15 07:13:55;;;;;;;;;;;10.20;95.40;;;;;;5012691;28;20053;-79
2021/04/15 07:16:50;;;;;;;11.18;6.50;;;10.20;95.80;;;;;;5011710;28;19944;-80
2021/04/15 07:19:28;;;;;;;10.38;7.60;;;10.60;96.20;;;;;;5008866;28;20034;-79
2021/04/15 07:22:15;;;;;;;12.80;6.53;;;10.70;93.90;;;;;;5009068;28;20092;-79
2021/04/15 07:25:01;;;;;;;10.27;6.70;;;10.00;92.60;;;;;;5009048;28;20084;-79
2021/04/15 07:27:38;;;;;;;10.25;6.63;;;10.50;95.90;;;;;;5011285;28;20036;-78
2021/04/15 07:30:25;;;;;;;12.02;7.40;;;10.70;96.80;;;;;;5010602;28;20018;-79
2021/04/15 07:33:00;;;;;;;9.73;6.63;;;10.80;93.30;;;;;;4992497;28;20040;-77
2021/04/15 07:35:37;;;;;;;9.95;6.95;;;11.00;93.40;;;;;;5001964;28;20114;-80
2021/04/15 07:38:15;;;;;;;13.40;5.97;;;10.70;88.40;;;;;;5010799;28;20104;-80
2021/04/15 07:40:50;;;;;;;9.68;5.57;;;10.60;86.90;;;;;;5009723;28;20073;-80
2021/04/15 07:43:21;;;;;;;7.68;4.95;;;10.70;86.20;;;;;;5009586;28;20029;-78
2021/04/15 07:46:15;;;;;;;10.55;6.00;;;10.80;84.40;;;;;;5005222;28;20029;-81
2021/04/15 07:49:06;;;;;;;7.80;4.85;;;11.00;89.10;;;;;;5009885;28;20056;-80
2021/04/15 07:51:44;;;;;;;6.13;4.75;;;11.00;78.80;;;;;;5011163;28;20161;-80
2021/04/15 07:54:47;;;;;;;7.72;4.80;;;11.20;84.20;;;;;;5011345;28;20137;-78
2021/04/15 07:57:38;;;;;;;7.63;5.30;;;11.00;78.00;;;;;;5011094;28;20422;-79
2021/04/15 08:00:36;;;;;;;8.60;4.75;;;11.20;78.30;;;;;;5005532;28;20065;-79
2021/04/15 08:03:43;;;;;;;7.13;4.55;;;11.20;74.90;;;;;;5011664;28;20026;-80
2021/04/15 08:06:25;;;;;;;8.13;5.32;;;11.20;79.00;;;;;;5010829;28;20022;-78
2021/04/15 08:09:12;;;;;;;7.28;5.03;;;11.40;77.00;;;;;;5010114;28;20400;-79
2021/04/15 08:12:06;;;;;;;8.90;5.78;;;11.40;75.30;;;;;;5010277;28;20045;-80
2021/04/15 08:14:59;;;;;;;10.48;6.25;;;11.40;78.50;;;;;;5009660;28;20097;-80
2021/04/15 08:17:57;;;;;;;7.85;5.40;;;11.60;74.60;;;;;;5008860;28;20022;-80
2021/04/15 08:20:35;;;;;;;8.43;5.50;;;12.10;74.10;;;;;;4982033;28;20041;-80
2021/04/15 08:23:20;;;;;;;10.27;6.10;;;12.40;73.30;;;;;;5021613;28;20018;-76
2021/04/15 08:26:01;;;;;;;11.90;6.22;;;12.50;71.60;;;;;;5003111;28;20418;-79
2021/04/15 08:29:04;;;;;;;10.35;5.35;;;12.40;75.50;;;;;;5003972;28;20385;-77
2021/04/15 08:31:58;;;;;;;10.15;5.53;;;12.40;74.40;;;;;;5019690;28;20045;-78
2021/04/15 08:34:57;;;;;;;8.52;5.20;;;12.40;72.70;;;;;;5028446;28;20059;-77
2021/04/15 08:37:47;;;;;;;15.02;7.40;;;12.40;68.50;;;;;;5023401;28;21047;-78
2021/04/15 08:40:45;;;;;;;12.35;6.72;;;12.90;72.60;;;;;;5007520;28;20133;-78
2021/04/15 08:43:32;;;;;;;11.93;6.75;;;13.30;74.30;;;;;;5010960;28;20034;-78
2021/04/15 08:46:29;;;;;;;10.93;5.47;;;13.50;72.20;;;;;;5006240;28;20030;-77
2021/04/15 08:49:20;;;;;;;8.70;6.25;;;13.70;70.70;;;;;;4992784;28;20030;-81
2021/04/15 08:51:48;;;;;;;8.05;5.43;;;13.60;67.10;;;;;;5010317;28;20539;-76
2021/04/15 08:54:52;;;;;;;8.38;5.45;;;13.80;69.80;;;;;;5010650;28;20026;-76
2021/04/15 08:57:37;;;;;;;8.48;5.50;;;13.30;69.60;;;;;;5009830;28;20022;-78
2021/04/15 09:00:06;;;;;;;7.38;5.10;;;13.20;67.90;;;;;;5010820;28;20029;-77
2021/04/15 09:02:53;;;;;;;8.07;5.47;;;13.10;66.70;;;;;;5010229;28;20048;-79
2021/04/15 09:05:36;;;;;;;8.90;5.20;;;13.00;67.80;;;;;;4996448;28;20116;-79
2021/04/15 09:08:18;;;;;;;8.35;5.25;;;11.60;67.50;;;;;;5009004;28;20018;-79
2021/04/15 09:11:03;;;;;;;8.60;5.28;;;11.50;67.70;;;;;;4998276;28;20034;-79
2021/04/15 09:13:53;;;;;;;8.13;5.40;;;11.20;68.10;;;;;;5004176;28;20033;-78
2021/04/15 09:16:34;;;;;;;8.40;5.20;;;10.50;71.10;;;;;;4994886;28;20045;-76
2021/04/15 09:19:06;;;;;;;;;;;10.70;72.70;;;;;;5010513;28;20030;-77
2021/04/15 09:22:05;;;;;;;8.32;5.38;;;12.00;71.40;;;;;;5009898;28;19916;-80
2021/04/15 09:25:05;;;;;;;7.28;4.57;;;12.10;70.70;;;;;;4992551;28;20497;-78
2021/04/15 09:27:46;;;;;;;6.70;4.85;;;12.50;71.90;;;;;;4988424;28;20058;-77
2021/04/15 09:30:29;;;;;;;9.35;4.85;;;12.80;69.10;;;;;;5009299;28;20119;-77
2021/04/15 09:33:16;;;;;;;6.47;4.60;;;13.20;69.40;;;;;;4991423;28;20057;-77
2021/04/15 09:35:54;;;;;;;7.38;5.32;;;13.00;68.30;;;;;;5010399;28;20038;-77
2021/04/15 09:38:41;;;;;;;9.23;5.70;;;12.40;68.30;;;;;;5005109;28;20034;-78
2021/04/15 09:41:35;;;;;;;7.55;5.50;;;11.90;69.20;;;;;;5013549;28;20080;-78
2021/04/15 09:44:38;;;;;;;7.50;4.72;;;11.60;70.70;;;;;;5013914;28;20025;-78
2021/04/15 09:47:15;;;;;;;7.10;4.82;;;12.00;74.70;;;;;;5013120;28;20041;-76
2021/04/15 09:50:02;;;;;;;10.68;5.40;;;11.60;71.40;;;;;;5032516;28;20125;-84
2021/04/15 09:52:42;;;;;;;6.80;5.35;;;11.60;76.60;;;;;;5001565;28;20034;-78
2021/04/15 09:55:55;;;;;;;7.95;5.63;;;11.60;72.50;;;;;;5010488;28;20026;-78
2021/04/15 09:58:37;;;;;;;7.03;5.22;;;11.40;71.60;;;;;;5008108;28;20583;-80
2021/04/15 10:01:24;;;;;;;7.35;5.35;;;11.40;73.00;;;;;;5012985;28;20108;-80
2021/04/15 10:04:28;;;;;;;7.45;5.30;;;11.20;72.20;;;;;;5010589;28;20025;-81
2021/04/15 10:07:01;;;;;;;7.70;4.60;;;11.30;71.50;;;;;;4942650;29;20066;-80
2021/04/15 10:09:48;;;;;;;8.52;5.68;;;11.30;71.00;;;;;;5000449;28;20453;-81
2021/04/15 10:12:35;;;;;;;6.53;4.80;;;11.20;71.80;;;;;;5009859;28;20037;-78
2021/04/15 10:15:27;;;;;;;7.40;5.28;;;11.30;72.70;;;;;;5012569;28;20485;-80
2021/04/15 10:18:30;;;;;;;7.85;4.97;;;11.10;72.60;;;;;;5010995;28;20032;-80
2021/04/15 10:21:26;;;;;;;6.80;5.35;;;11.20;72.10;;;;;;5011063;28;20061;-79
2021/04/15 10:24:14;;;;;;;7.13;5.38;;;11.40;73.60;;;;;;5009477;28;20117;-81
2021/04/15 10:27:02;;;;;;;7.93;5.35;;;11.30;72.20;;;;;;5011621;28;20057;-80
2021/04/15 10:29:53;;;;;;;8.93;5.40;;;11.40;71.50;;;;;;5013833;28;20033;-80
2021/04/15 10:32:43;;;;;;;9.95;5.47;;;11.50;71.90;;;;;;5007538;28;20041;-79
2021/04/15 10:35:30;;;;;;;7.00;5.22;;;11.70;71.20;;;;;;5012332;28;20050;-77
2021/04/15 10:38:21;;;;;;;7.20;4.82;;;11.90;70.60;;;;;;5010436;28;20768;-78
2021/04/15 10:41:17;;;;;;;7.15;5.22;;;11.90;69.50;;;;;;5012818;28;20037;-80
2021/04/15 10:44:21;;;;;;;7.38;4.70;;;12.20;67.80;;;;;;5010641;28;20112;-80
2021/04/15 10:47:05;;;;;;;7.63;5.18;;;12.00;68.00;;;;;;5012062;28;20109;-78
2021/04/15 10:50:08;;;;;;;8.02;5.13;;;12.30;68.70;;;;;;5011941;28;20114;-77
2021/04/15 10:53:02;;;;;;;7.68;5.70;;;12.20;68.80;;;;;;5011719;28;20417;-80
2021/04/15 10:55:41;;;;;;;8.48;5.60;;;12.20;68.20;;;;;;5005062;28;20073;-77
2021/04/15 10:58:48;;;;;;;6.32;4.82;;;12.50;67.70;;;;;;5010548;28;20028;-78
2021/04/15 11:01:34;;;;;;;7.68;5.20;;;13.00;68.60;;;;;;5012633;28;20030;-78
2021/04/15 11:04:13;;;;;;;7.55;4.95;;;13.20;64.90;;;;;;5010189;28;20038;-76
2021/04/15 11:06:46;;;;;;;7.90;5.20;;;13.00;66.80;;;;;;5012892;28;20032;-78
2021/04/15 11:09:32;;;;;;;6.95;4.88;;;13.10;66.40;;;;;;5012048;28;20033;-79
2021/04/15 11:12:15;;;;;;;7.35;4.82;;;13.10;65.00;;;;;;5012389;28;20041;-78
2021/04/15 11:14:53;;;;;;;8.27;5.18;;;13.10;63.90;;;;;;5021695;28;20025;-77
2021/04/15 11:17:23;;;;;;;8.02;5.45;;;13.10;63.20;;;;;;5009701;28;20022;-78
2021/04/15 11:20:05;;;;;;;8.30;5.00;;;13.40;64.60;;;;;;5010277;28;20413;-77
2021/04/15 11:22:33;;;;;;;12.38;4.80;;;13.40;63.80;;;;;;5002450;28;20444;-79
2021/04/15 11:25:19;;;;;;;7.25;4.70;;;13.90;63.00;;;;;;5010518;28;20022;-77
2021/04/15 11:27:46;;;;;;;10.93;4.88;;;14.50;63.00;;;;;;5010388;28;20393;-77
2021/04/15 11:30:33;;;;;;;10.55;5.95;;;13.50;60.70;;;;;;5008456;28;20040;-78
2021/04/15 11:32:58;;;;;;;6.07;4.55;;;13.40;60.70;;;;;;5009264;28;20041;-77
2021/04/15 11:35:24;;;;;;;9.30;6.43;;;13.50;59.60;;;;;;5011213;28;20100;-79
2021/04/15 11:38:04;;;;;;;13.02;5.47;;;13.50;60.00;;;;;;5012054;28;20485;-76
2021/04/15 11:40:40;;;;;;;8.55;4.95;;;13.30;59.90;;;;;;5011930;28;20025;-77
2021/04/15 11:43:26;;;;;;;6.65;4.47;;;13.40;58.70;;;;;;5012191;28;20033;-76
2021/04/15 11:45:55;;;;;;;7.95;5.25;;;13.30;59.70;;;;;;4994040;28;20116;-77
2021/04/15 11:48:28;;;;;;;7.95;5.25;;;13.40;61.40;;;;;;5010802;28;20387;-77
2021/04/15 11:51:19;;;;;;;7.38;4.65;;;13.30;61.50;;;;;;5011841;28;20040;-80
2021/04/15 11:53:51;;;;;;;7.90;5.03;;;13.30;62.20;;;;;;5009418;28;20128;-80
2021/04/15 11:56:23;;;;;;;8.18;4.53;;;13.60;63.30;;;;;;5010502;28;20079;-80
2021/04/15 11:58:51;;;;;;;8.35;5.10;;;13.70;62.80;;;;;;5009359;28;20018;-79
2021/04/15 12:01:30;;;;;;;11.43;5.53;;;13.90;62.20;;;;;;5002969;28;20030;-77
2021/04/15 12:04:05;;;;;;;6.67;4.80;;;14.10;60.60;;;;;;5010189;28;20030;-76
2021/04/15 12:06:55;;;;;;;9.38;4.63;;;13.90;60.30;;;;;;5010587;28;20274;-78
2021/04/15 12:09:24;;;;;;;;;;;14.20;60.50;;;;;;5011861;28;20018;-78
2021/04/15 12:12:13;;;;;;;8.52;4.47;;;14.70;59.70;;;;;;5011974;28;19913;-83
2021/04/15 12:14:40;;;;;;;6.82;4.78;;;14.00;61.20;;;;;;4988282;28;20489;-78
2021/04/15 12:17:11;;;;;;;8.00;5.32;;;14.20;61.30;;;;;;5011741;28;20026;-79
2021/04/15 12:19:49;;;;;;;7.07;4.72;;;14.10;59.60;;;;;;5010974;28;20030;-81
2021/04/15 12:22:32;;;;;;;6.88;4.75;;;14.10;59.80;;;;;;5011955;28;20025;-80
2021/04/15 12:25:14;;;;;;;7.25;5.00;;;14.20;59.60;;;;;;4993802;28;20025;-81
2021/04/15 12:27:40;;;;;;;8.18;4.65;;;13.60;60.70;;;;;;5011962;28;20029;-79
2021/04/15 12:30:37;;;;;;;8.27;5.07;;;13.60;61.00;;;;;;5017923;28;20025;-79
2021/04/15 12:33:36;;;;;;;8.90;4.90;;;13.40;60.40;;;;;;5029925;28;20124;-78
2021/04/15 12:36:14;;;;;;;8.07;4.68;;;14.50;61.10;;;;;;4975677;28;20100;-80
2021/04/15 12:38:50;;;;;;;8.23;4.40;;;15.20;58.40;;;;;;5031060;28;20029;-81
2021/04/15 12:41:16;;;;;;;7.25;4.90;;;16.80;56.30;;;;;;5031243;28;20049;-80
2021/04/15 12:43:50;;;;;;;6.72;4.22;;;17.00;54.20;;;;;;5030831;28;20495;-82
2021/04/15 12:46:20;;;;;;;7.07;4.18;;;16.90;53.30;;;;;;5030633;28;20021;-82
2021/04/15 12:48:54;;;;;;;6.57;4.28;;;16.60;52.30;;;;;;5012119;28;20029;-84
2021/04/15 12:51:27;;;;;;;7.38;4.28;;;16.40;52.60;;;;;;4977828;28;20375;-81
2021/04/15 12:54:00;;;;;;;8.60;4.03;;;16.70;52.20;;;;;;4991663;28;20097;-80
2021/04/15 12:56:53;;;;;;;7.35;4.68;;;16.60;51.50;;;;;;4991262;28;20041;-81
2021/04/15 12:59:23;;;;;;;7.45;4.22;;;16.30;51.60;;;;;;4985177;28;20037;-82
2021/04/15 13:01:49;;;;;;;;;;;16.50;51.00;;;;;;5000787;28;20476;-79
2021/04/15 13:04:22;;;;;;;7.75;4.53;;;15.60;51.70;;;;;;5010753;28;19916;-85
2021/04/15 13:07:00;;;;;;;11.02;4.60;;;15.90;53.90;;;;;;5010904;28;20090;-83
2021/04/15 13:09:34;;;;;;;6.63;4.25;;;18.10;51.50;;;;;;5011194;28;20040;-83
2021/04/15 13:12:18;;;;;;;7.97;4.32;;;18.70;49.40;;;;;;5014945;28;20041;-80
2021/04/15 13:14:45;;;;;;;7.82;4.60;;;19.00;48.60;;;;;;5014322;28;20046;-80
2021/04/15 13:17:32;;;;;;;6.53;3.90;;;19.00;47.90;;;;;;5014864;28;20032;-83
2021/04/15 13:19:58;;;;;;;8.82;4.50;;;18.60;46.30;;;;;;5014810;28;20504;-81
2021/04/15 13:22:36;;;;;;;8.32;4.78;;;17.60;47.60;;;;;;5015202;28;20030;-83
2021/04/15 13:25:02;;;;;;;9.18;4.47;;;17.70;48.00;;;;;;5014086;28;20161;-83
2021/04/15 13:30:15;;;;;;;6.68;3.88;;;17.40;47.80;;;;;;5019042;28;20029;-79
2021/04/15 13:33:08;;;;;;;6.88;4.15;;;18.40;49.00;;;;;;5034555;28;20125;-81
2021/04/15 13:35:42;;;;;;;7.55;4.32;;;17.80;48.20;;;;;;5033807;28;20038;-80
2021/04/15 13:38:52;;;;;;;8.98;4.30;;;18.10;48.50;;;;;;5034529;28;20410;-79
2021/04/15 13:41:24;;;;;;;7.18;3.83;;;17.20;48.10;;;;;;4996604;28;20190;-81
2021/04/15 13:43:57;;;;;;;6.63;4.15;;;17.10;50.40;;;;;;5034306;28;20033;-82
2021/04/15 13:46:23;;;;;;;7.43;4.53;;;17.00;50.20;;;;;;5033553;28;20048;-84
2021/04/15 13:48:50;;;;;;;6.80;4.45;;;16.40;50.60;;;;;;5033978;28;20028;-82
2021/04/15 13:51:23;;;;;;;7.55;4.40;;;16.20;51.60;;;;;;5015887;28;20050;-81
2021/04/15 13:54:00;;;;;;;7.82;4.65;;;15.90;51.70;;;;;;5033640;28;20018;-81